Yosemite National Park, CA

6:33 AM PDT on October 21, 2014 (GMT -0700)
Merced Municipal-Macready | Change Station
CLOSE
Current Station
Airport
Location: Merced,
Elevation: 154 ft
Nearby Weather Stations

Elev 154 ft 37.28 °N, 120.51 °W | Updated 40 minutes ago

Clear
Clear
54 °F
Feels Like 54 °F
N
10
Wind Variable Wind from NNW

Today
High -- | Low -- °F
--% Chance of Precip.
Yesterday
High -- | Low -- °F
Precip. -- in
7:12 AM 6:12 PM
Waning Crescent, 5% visible
Pressure 30.04 in
Visibility 10.0 miles
Clouds Clear
Dew Point 49 °F
Humidity 83%
Rainfall 0.00 in
Snow Depth Not available.
UV 0 out of 12
Pollen 3.20 out of 12
Air Quality Not available.
Flu Activity Sporadic
METAR KMCE 211253Z AUTO 33009KT 10SM CLR 12/09 A3004 RMK AO2 SLP172 T01220094

More Conditions Fewer Conditions

Pressure 30.04 in
Visibility 10.0 miles
Clouds Clear
Dew Point 49 °F
Humidity 83%
Rainfall 0.00 in
Snow Depth Not available.
UV 0 out of 12
Pollen 3.20 out of 12
Air Quality Not available.
Flu Activity Sporadic
METAR KMCE 211253Z AUTO 33009KT 10SM CLR 12/09 A3004 RMK AO2 SLP172 T01220094

More Conditions Fewer Conditions

10-Day Weather Forecast

Almanac

Astronomy

Oct. 21, 2014 Rise Set
Actual Time 7:12 AM PDT 6:12 PM PDT
Civil Twilight 6:45 AM PDT 6:39 PM PDT
Nautical Twilight 6:15 AM PDT 7:09 PM PDT
Astronomical Twilight 5:44 AM PDT 7:40 PM PDT
Moon 5:03 AM PDT 5:07 PM PDT
Length of Visible Light 11h 53m
Length of Day
11h 00m
Tomorrow will be 2m 17s shorter.
Waning Crescent, 5% of the Moon is Illuminated
Today
Waning Crescent
Oct 23
New
Oct 30
First Quarter
Nov 6
Full
Nov 14
Last Quarter

Today's Extremes

State Highs State Lows

Community

WunderPhotos

Upload Photos

1,763,662 photos uploaded!

Nearby

Snow Depth

Station Depth Elevation
Virginia Lakes Ridge 0 in 9200 ft
Leavitt Lake 1 in 9400 ft
Sonora Pass 0 in 8800 ft
Leavitt Meadows 1 in 7200 ft
Summit Meadow 1 in 9122 ft

Earthquake Activity

City Distance Mag. Time & Date
Mammoth Lakes, California 47 miles 3.0 11:10 PM PDT
2014-10-20
Lone Pine, California 126 miles 2.6 5:26 AM PDT
2014-10-19
Dixon Lane-Meadow Creek, California 64 miles 2.6 5:32 PM PDT
2014-10-18
Smith Valley, Nevada 65 miles 2.9 10:59 AM PDT
2014-10-18
Minimum magnitude displayed is 2.5.

Coastal Water Temperatures

Place Temperature
No Stations Reporting

Nearby Weather Stations